Abelardo L. Rodriguez, México

12:08 PM CST en Febrero 18, 2018 (GMT -0600)
Francisco Sarabia | | Change Station

Alt 1732 ft 16.75 °N, 93.12 °W | Updated 26 minutes ago

Scattered Clouds
Nubes dispersas
84 ° F
Sensación térmica 84 ° F
N
7
Viento Variable Viento desde SE

Hoy
Alta -- | Baja -- ° F
--% Posibilidad de precipitaciones
Ayer
Alta -- | Baja -- ° F
Precip. -- pul
Presión 29.93 pul
Visibilidad 10.0 Millas
Nubes Baja 1800 ft
Nubes dispersas 8000 ft
Índice de calor 84 ° F
Punto de rocío 61 ° F
Humedad 45%
Precipitaciones 0.00 pul
Espesor de la nieve No disponible.
6:39 AM 6:18 PM
Creciente, 8% visible
METAR MMTG 181742Z 13006KT 10SM FEW018 SCT080 29/16 A3002 RMK SLP134 57022 961 8/130
Presión 29.93 pul
Visibilidad 10.0 Millas
Nubes Baja 1800 ft
Nubes dispersas 8000 ft
Índice de calor 84 ° F
Punto de rocío 61 ° F
Humedad 45%
Precipitaciones 0.00 pul
Espesor de la nieve No disponible.
6:39 AM 6:18 PM
Creciente, 8% visible
METAR MMTG 181742Z 13006KT 10SM FEW018 SCT080 29/16 A3002 RMK SLP134 57022 961 8/130

Get Severe Weather Alerts

Thanks for signing up!

Be on the lookout for a verification email in your inbox.

You'll start receiving the daily forecast at 6 AM.

×

10-Day Weather Forecast

No radar image for this location.
×

Almanac

Astronomía

Feb. 18, 2018 Salida Puesta
Hora real
Crepúsculo civil
Crepúsculo náutico
Crepúsculo astronómico
Luna
Horas de luz
Horas de luz
Tomorrow will be .
, % of the Moon is Illuminated

Extremos de hoy

Máximos del país Bajas del país

Community

WunderPhotos

Category 6

Welcome to Category 6. This is the collective home for Weather Underground's featured writeups by Dr. Jeff Masters (right), Bob Henson (left), Chris Burt, and other regular contributors.

Nearby

Calidad del aire

  Calidad del aire Índice AQ Contaminante
Not available.

Grosos de nieve

Estación Profundido Altura

Actividad de terremotos

Ciudad Distance Mag. Tiempo y dato
Magnitud mínima muestra es 2,5.

Temperaturas de aguas costeras

Lugar Temperatura

Stations

Estaciones meteorológicas cercanas

Ubicación de la estación Temp. Vientos helados Punto de rocío Humedad Viento Precip. Alt Actualizado Tipo